sensor_id;sensor_type;location;lat;lon;timestamp;pressure;altitude;pressure_sealevel;temperature;humidity
73566;BME280;61846;52.970;-3.168;2023-04-28T00:01:40;99837.41;;;10.80;55.18
73566;BME280;61846;52.970;-3.168;2023-04-28T00:04:05;99832.66;;;10.62;56.03
73566;BME280;61846;52.970;-3.168;2023-04-28T00:06:31;99829.52;;;8.58;60.75
73566;BME280;61846;52.970;-3.168;2023-04-28T00:08:57;99822.33;;;8.82;60.07
73566;BME280;61846;52.970;-3.168;2023-04-28T00:11:22;99815.77;;;10.34;56.62
73566;BME280;61846;52.970;-3.168;2023-04-28T00:13:48;99815.90;;;8.76;61.65
73566;BME280;61846;52.970;-3.168;2023-04-28T00:16:13;99816.48;;;7.97;63.75
73566;BME280;61846;52.970;-3.168;2023-04-28T00:18:39;99809.33;;;9.54;59.56
73566;BME280;61846;52.970;-3.168;2023-04-28T00:21:04;99801.70;;;10.24;57.26
73566;BME280;61846;52.970;-3.168;2023-04-28T00:23:30;99803.53;;;8.93;59.85
73566;BME280;61846;52.970;-3.168;2023-04-28T00:25:55;99795.83;;;9.55;59.31
73566;BME280;61846;52.970;-3.168;2023-04-28T00:28:21;99797.34;;;9.28;59.73
73566;BME280;61846;52.970;-3.168;2023-04-28T00:30:46;99792.15;;;10.34;56.36
73566;BME280;61846;52.970;-3.168;2023-04-28T00:33:12;99794.37;;;9.58;57.55
73566;BME280;61846;52.970;-3.168;2023-04-28T00:35:37;99791.36;;;10.67;55.28
73566;BME280;61846;52.970;-3.168;2023-04-28T00:38:02;99793.12;;;10.16;56.88
73566;BME280;61846;52.970;-3.168;2023-04-28T00:40:32;99792.85;;;10.95;55.03
73566;BME280;61846;52.970;-3.168;2023-04-28T00:42:54;99793.26;;;11.33;54.70
73566;BME280;61846;52.970;-3.168;2023-04-28T00:45:19;99789.43;;;11.37;53.12
73566;BME280;61846;52.970;-3.168;2023-04-28T00:47:44;99790.15;;;11.89;51.96
73566;BME280;61846;52.970;-3.168;2023-04-28T00:50:09;99785.67;;;12.38;51.37
73566;BME280;61846;52.970;-3.168;2023-04-28T00:52:36;99787.45;;;12.89;50.43
73566;BME280;61846;52.970;-3.168;2023-04-28T00:55:01;99784.57;;;12.31;51.22
73566;BME280;61846;52.970;-3.168;2023-04-28T00:57:26;99784.73;;;11.51;52.35
73566;BME280;61846;52.970;-3.168;2023-04-28T00:59:51;99785.74;;;12.17;50.96
73566;BME280;61846;52.970;-3.168;2023-04-28T01:02:16;99785.67;;;12.06;50.66
73566;BME280;61846;52.970;-3.168;2023-04-28T01:04:42;99788.46;;;11.36;52.56
73566;BME280;61846;52.970;-3.168;2023-04-28T01:07:08;99779.82;;;11.04;53.28
73566;BME280;61846;52.970;-3.168;2023-04-28T01:09:32;99781.00;;;10.07;55.99
73566;BME280;61846;52.970;-3.168;2023-04-28T01:11:58;99780.28;;;11.01;53.99
73566;BME280;61846;52.970;-3.168;2023-04-28T01:14:24;99779.26;;;10.67;54.66
73566;BME280;61846;52.970;-3.168;2023-04-28T01:16:49;99781.88;;;9.45;56.98
73566;BME280;61846;52.970;-3.168;2023-04-28T01:19:19;99780.70;;;11.61;52.50
73566;BME280;61846;52.970;-3.168;2023-04-28T01:21:40;99782.22;;;11.89;51.88
73566;BME280;61846;52.970;-3.168;2023-04-28T01:24:05;99782.98;;;10.51;55.38
73566;BME280;61846;52.970;-3.168;2023-04-28T01:26:30;99783.19;;;12.31;51.01
73566;BME280;61846;52.970;-3.168;2023-04-28T01:28:56;99787.41;;;12.03;51.50
73566;BME280;61846;52.970;-3.168;2023-04-28T01:31:21;99785.48;;;12.11;51.09
73566;BME280;61846;52.970;-3.168;2023-04-28T01:33:46;99780.76;;;12.93;50.12
73566;BME280;61846;52.970;-3.168;2023-04-28T01:36:12;99780.72;;;12.28;50.37
73566;BME280;61846;52.970;-3.168;2023-04-28T01:38:37;99779.14;;;13.12;48.74
73566;BME280;61846;52.970;-3.168;2023-04-28T01:41:03;99778.44;;;12.88;48.49
73566;BME280;61846;52.970;-3.168;2023-04-28T01:43:28;99780.05;;;13.34;48.23
73566;BME280;61846;52.970;-3.168;2023-04-28T01:45:54;99782.18;;;13.03;48.64
73566;BME280;61846;52.970;-3.168;2023-04-28T01:48:19;99785.28;;;12.38;49.36
73566;BME280;61846;52.970;-3.168;2023-04-28T01:50:44;99779.53;;;13.34;48.18
73566;BME280;61846;52.970;-3.168;2023-04-28T01:53:10;99780.11;;;13.13;48.24
73566;BME280;61846;52.970;-3.168;2023-04-28T01:55:36;99776.46;;;13.37;47.67
73566;BME280;61846;52.970;-3.168;2023-04-28T01:58:00;99776.82;;;12.86;48.38
73566;BME280;61846;52.970;-3.168;2023-04-28T02:00:26;99777.19;;;13.08;47.75
73566;BME280;61846;52.970;-3.168;2023-04-28T02:02:51;99775.68;;;12.96;48.53
73566;BME280;61846;52.970;-3.168;2023-04-28T02:05:17;99771.93;;;13.35;47.59
73566;BME280;61846;52.970;-3.168;2023-04-28T02:07:43;99767.61;;;12.85;48.42
73566;BME280;61846;52.970;-3.168;2023-04-28T02:10:09;99763.54;;;13.21;48.11
73566;BME280;61846;52.970;-3.168;2023-04-28T02:12:34;99764.20;;;12.33;49.57
73566;BME280;61846;52.970;-3.168;2023-04-28T02:14:59;99763.25;;;12.75;48.93
73566;BME280;61846;52.970;-3.168;2023-04-28T02:17:25;99765.61;;;12.88;48.84
73566;BME280;61846;52.970;-3.168;2023-04-28T02:19:54;99766.09;;;13.05;48.70
73566;BME280;61846;52.970;-3.168;2023-04-28T02:22:16;99768.19;;;12.86;48.75
73566;BME280;61846;52.970;-3.168;2023-04-28T02:24:42;99770.54;;;13.13;48.46
73566;BME280;61846;52.970;-3.168;2023-04-28T02:27:07;99769.21;;;13.04;47.87
73566;BME280;61846;52.970;-3.168;2023-04-28T02:29:33;99766.93;;;12.99;48.30
73566;BME280;61846;52.970;-3.168;2023-04-28T02:31:58;99769.09;;;13.18;48.08
73566;BME280;61846;52.970;-3.168;2023-04-28T02:34:24;99773.67;;;12.97;47.94
73566;BME280;61846;52.970;-3.168;2023-04-28T02:36:50;99770.89;;;13.26;47.99
73566;BME280;61846;52.970;-3.168;2023-04-28T02:39:15;99769.45;;;13.22;47.81
73566;BME280;61846;52.970;-3.168;2023-04-28T02:41:40;99769.10;;;13.17;47.74
73566;BME280;61846;52.970;-3.168;2023-04-28T02:44:06;99772.83;;;13.48;47.36
73566;BME280;61846;52.970;-3.168;2023-04-28T02:46:31;99776.94;;;12.91;48.69
73566;BME280;61846;52.970;-3.168;2023-04-28T02:48:57;99771.91;;;12.86;48.80
73566;BME280;61846;52.970;-3.168;2023-04-28T02:51:22;99772.80;;;12.98;48.43
73566;BME280;61846;52.970;-3.168;2023-04-28T02:53:48;99776.81;;;13.40;47.87
73566;BME280;61846;52.970;-3.168;2023-04-28T02:56:13;99779.65;;;12.98;48.29
73566;BME280;61846;52.970;-3.168;2023-04-28T02:58:39;99778.33;;;13.77;47.19
73566;BME280;61846;52.970;-3.168;2023-04-28T03:01:04;99775.20;;;13.99;46.19
73566;BME280;61846;52.970;-3.168;2023-04-28T03:03:30;99773.06;;;13.83;46.27
73566;BME280;61846;52.970;-3.168;2023-04-28T03:05:55;99772.24;;;13.95;46.15
73566;BME280;61846;52.970;-3.168;2023-04-28T03:08:21;99774.99;;;13.52;46.52
73566;BME280;61846;52.970;-3.168;2023-04-28T03:10:47;99776.04;;;13.95;46.89
73566;BME280;61846;52.970;-3.168;2023-04-28T03:13:12;99772.34;;;13.41;47.02
73566;BME280;61846;52.970;-3.168;2023-04-28T03:15:37;99770.18;;;13.27;47.40
73566;BME280;61846;52.970;-3.168;2023-04-28T03:18:03;99771.07;;;13.30;47.42
73566;BME280;61846;52.970;-3.168;2023-04-28T03:20:29;99773.59;;;13.43;47.17
73566;BME280;61846;52.970;-3.168;2023-04-28T03:22:54;99771.60;;;13.32;47.29
73566;BME280;61846;52.970;-3.168;2023-04-28T03:25:20;99770.52;;;13.13;47.52
73566;BME280;61846;52.970;-3.168;2023-04-28T03:27:45;99767.92;;;14.03;46.88
73566;BME280;61846;52.970;-3.168;2023-04-28T03:30:11;99760.17;;;13.90;46.00
73566;BME280;61846;52.970;-3.168;2023-04-28T03:32:36;99758.74;;;13.62;46.51
73566;BME280;61846;52.970;-3.168;2023-04-28T03:35:01;99759.99;;;13.67;46.21
73566;BME280;61846;52.970;-3.168;2023-04-28T03:37:26;99764.32;;;13.41;46.67
73566;BME280;61846;52.970;-3.168;2023-04-28T03:39:52;99766.37;;;13.55;46.99
73566;BME280;61846;52.970;-3.168;2023-04-28T03:42:17;99769.29;;;13.50;46.55
73566;BME280;61846;52.970;-3.168;2023-04-28T03:44:43;99771.25;;;13.42;47.19
73566;BME280;61846;52.970;-3.168;2023-04-28T03:47:08;99768.14;;;13.56;46.65
73566;BME280;61846;52.970;-3.168;2023-04-28T03:49:34;99771.81;;;14.21;45.76
73566;BME280;61846;52.970;-3.168;2023-04-28T03:51:59;99774.88;;;13.52;46.28
73566;BME280;61846;52.970;-3.168;2023-04-28T03:54:25;99775.41;;;13.44;46.73
73566;BME280;61846;52.970;-3.168;2023-04-28T03:56:51;99773.87;;;13.45;47.17
73566;BME280;61846;52.970;-3.168;2023-04-28T03:59:15;99775.48;;;13.90;45.85
73566;BME280;61846;52.970;-3.168;2023-04-28T04:01:41;99770.60;;;13.64;46.27
73566;BME280;61846;52.970;-3.168;2023-04-28T04:04:06;99774.64;;;13.11;47.31
73566;BME280;61846;52.970;-3.168;2023-04-28T04:06:32;99781.68;;;13.36;47.32
73566;BME280;61846;52.970;-3.168;2023-04-28T04:08:58;99785.75;;;13.48;47.10
73566;BME280;61846;52.970;-3.168;2023-04-28T04:11:23;99786.86;;;13.94;45.70
73566;BME280;61846;52.970;-3.168;2023-04-28T04:13:49;99785.93;;;14.10;45.28
73566;BME280;61846;52.970;-3.168;2023-04-28T04:16:14;99790.44;;;13.82;45.27
73566;BME280;61846;52.970;-3.168;2023-04-28T04:18:40;99797.32;;;13.47;46.49
73566;BME280;61846;52.970;-3.168;2023-04-28T04:21:05;99798.41;;;14.07;45.29
73566;BME280;61846;52.970;-3.168;2023-04-28T04:23:30;99802.63;;;13.83;45.67
73566;BME280;61846;52.970;-3.168;2023-04-28T04:25:55;99805.65;;;13.73;46.08
73566;BME280;61846;52.970;-3.168;2023-04-28T04:28:21;99807.08;;;14.39;45.38
73566;BME280;61846;52.970;-3.168;2023-04-28T04:30:47;99805.79;;;14.41;45.43
73566;BME280;61846;52.970;-3.168;2023-04-28T04:33:13;99811.23;;;14.08;46.06
73566;BME280;61846;52.970;-3.168;2023-04-28T04:35:38;99806.63;;;13.67;46.43
73566;BME280;61846;52.970;-3.168;2023-04-28T04:38:04;99805.08;;;14.17;45.45
73566;BME280;61846;52.970;-3.168;2023-04-28T04:40:29;99810.34;;;13.39;46.31
73566;BME280;61846;52.970;-3.168;2023-04-28T04:42:55;99813.62;;;13.68;46.61
73566;BME280;61846;52.970;-3.168;2023-04-28T04:45:21;99817.77;;;13.40;47.21
73566;BME280;61846;52.970;-3.168;2023-04-28T04:47:46;99817.11;;;14.05;46.08
73566;BME280;61846;52.970;-3.168;2023-04-28T04:50:12;99816.00;;;13.32;47.25
73566;BME280;61846;52.970;-3.168;2023-04-28T04:52:38;99817.92;;;13.40;46.87
73566;BME280;61846;52.970;-3.168;2023-04-28T04:55:04;99823.44;;;12.90;47.86
73566;BME280;61846;52.970;-3.168;2023-04-28T04:57:29;99825.19;;;13.03;47.78
73566;BME280;61846;52.970;-3.168;2023-04-28T04:59:54;99823.53;;;13.40;47.11
73566;BME280;61846;52.970;-3.168;2023-04-28T05:02:19;99824.57;;;13.84;45.95
73566;BME280;61846;52.970;-3.168;2023-04-28T05:04:45;99826.01;;;13.63;46.44
73566;BME280;61846;52.970;-3.168;2023-04-28T05:07:10;99830.51;;;13.62;46.94
73566;BME280;61846;52.970;-3.168;2023-04-28T05:09:35;99832.43;;;14.45;45.78
73566;BME280;61846;52.970;-3.168;2023-04-28T05:12:01;99832.20;;;14.12;45.38
73566;BME280;61846;52.970;-3.168;2023-04-28T05:14:26;99837.44;;;13.86;46.03
73566;BME280;61846;52.970;-3.168;2023-04-28T05:16:51;99838.29;;;14.07;45.60
73566;BME280;61846;52.970;-3.168;2023-04-28T05:19:16;99839.79;;;13.95;45.62
73566;BME280;61846;52.970;-3.168;2023-04-28T05:21:42;99840.50;;;14.01;46.00
73566;BME280;61846;52.970;-3.168;2023-04-28T05:24:07;99844.30;;;13.74;46.22
73566;BME280;61846;52.970;-3.168;2023-04-28T05:26:33;99849.72;;;13.71;46.15
73566;BME280;61846;52.970;-3.168;2023-04-28T05:28:58;99853.34;;;13.70;46.58
73566;BME280;61846;52.970;-3.168;2023-04-28T05:31:23;99851.57;;;13.77;46.78
73566;BME280;61846;52.970;-3.168;2023-04-28T05:33:49;99855.47;;;13.04;47.37
73566;BME280;61846;52.970;-3.168;2023-04-28T05:36:14;99859.21;;;13.29;47.36
73566;BME280;61846;52.970;-3.168;2023-04-28T05:38:40;99862.55;;;13.42;46.91
73566;BME280;61846;52.970;-3.168;2023-04-28T05:41:06;99864.82;;;14.00;45.89
73566;BME280;61846;52.970;-3.168;2023-04-28T05:43:31;99864.36;;;13.52;46.63
73566;BME280;61846;52.970;-3.168;2023-04-28T05:45:56;99865.37;;;13.99;45.51
73566;BME280;61846;52.970;-3.168;2023-04-28T05:48:21;99868.68;;;14.14;46.02
73566;BME280;61846;52.970;-3.168;2023-04-28T05:50:47;99875.85;;;12.81;48.16
73566;BME280;61846;52.970;-3.168;2023-04-28T05:53:12;99876.12;;;13.84;47.10
73566;BME280;61846;52.970;-3.168;2023-04-28T05:55:37;99877.59;;;13.46;47.23
73566;BME280;61846;52.970;-3.168;2023-04-28T05:58:03;99877.57;;;13.40;47.36
73566;BME280;61846;52.970;-3.168;2023-04-28T06:00:29;99877.65;;;13.33;47.57
73566;BME280;61846;52.970;-3.168;2023-04-28T06:02:54;99882.54;;;13.75;46.74
73566;BME280;61846;52.970;-3.168;2023-04-28T06:05:20;99883.87;;;13.74;46.55
73566;BME280;61846;52.970;-3.168;2023-04-28T06:07:45;99887.69;;;13.40;47.24
73566;BME280;61846;52.970;-3.168;2023-04-28T06:10:11;99888.46;;;13.99;46.72
73566;BME280;61846;52.970;-3.168;2023-04-28T06:12:36;99891.91;;;14.01;46.34
73566;BME280;61846;52.970;-3.168;2023-04-28T06:15:03;99895.92;;;14.23;45.97
73566;BME280;61846;52.970;-3.168;2023-04-28T06:17:28;99893.41;;;14.04;46.35
73566;BME280;61846;52.970;-3.168;2023-04-28T06:19:53;99895.48;;;14.23;46.48
73566;BME280;61846;52.970;-3.168;2023-04-28T06:22:18;99899.02;;;13.97;47.21
73566;BME280;61846;52.970;-3.168;2023-04-28T06:24:44;99900.61;;;13.91;47.76
73566;BME280;61846;52.970;-3.168;2023-04-28T06:27:09;99900.97;;;13.45;48.79
73566;BME280;61846;52.970;-3.168;2023-04-28T06:29:35;99902.56;;;13.61;49.19
73566;BME280;61846;52.970;-3.168;2023-04-28T06:32:00;99909.31;;;13.31;50.95
73566;BME280;61846;52.970;-3.168;2023-04-28T06:34:26;99911.04;;;12.39;52.46
73566;BME280;61846;52.970;-3.168;2023-04-28T06:36:52;99912.07;;;11.80;55.47
73566;BME280;61846;52.970;-3.168;2023-04-28T06:39:17;99910.67;;;11.18;56.77
73566;BME280;61846;52.970;-3.168;2023-04-28T06:41:43;99919.60;;;10.36;59.47
73566;BME280;61846;52.970;-3.168;2023-04-28T06:44:08;99913.72;;;10.55;59.04
73566;BME280;61846;52.970;-3.168;2023-04-28T06:46:35;99915.41;;;11.16;57.84
73566;BME280;61846;52.970;-3.168;2023-04-28T06:48:59;99920.76;;;10.59;57.93
73566;BME280;61846;52.970;-3.168;2023-04-28T06:51:25;99922.87;;;11.86;55.77
73566;BME280;61846;52.970;-3.168;2023-04-28T06:53:50;99925.88;;;12.31;54.04
73566;BME280;61846;52.970;-3.168;2023-04-28T06:56:16;99930.71;;;11.95;55.71
73566;BME280;61846;52.970;-3.168;2023-04-28T06:58:42;99933.66;;;11.68;56.47
73566;BME280;61846;52.970;-3.168;2023-04-28T07:01:07;99944.05;;;10.65;59.26
73566;BME280;61846;52.970;-3.168;2023-04-28T07:03:33;99945.27;;;10.57;60.62
73566;BME280;61846;52.970;-3.168;2023-04-28T07:05:58;99943.75;;;10.87;59.74
73566;BME280;61846;52.970;-3.168;2023-04-28T07:08:24;99952.13;;;11.27;59.65
73566;BME280;61846;52.970;-3.168;2023-04-28T07:10:49;99956.78;;;10.94;59.93
73566;BME280;61846;52.970;-3.168;2023-04-28T07:13:15;99958.69;;;11.98;57.60
73566;BME280;61846;52.970;-3.168;2023-04-28T07:15:41;99958.29;;;11.52;57.92
73566;BME280;61846;52.970;-3.168;2023-04-28T07:18:06;99959.66;;;11.85;56.87
73566;BME280;61846;52.970;-3.168;2023-04-28T07:20:32;99964.07;;;12.14;55.87
73566;BME280;61846;52.970;-3.168;2023-04-28T07:22:57;99965.00;;;11.89;56.67
73566;BME280;61846;52.970;-3.168;2023-04-28T07:25:23;99962.94;;;11.61;56.99
73566;BME280;61846;52.970;-3.168;2023-04-28T07:27:48;99962.40;;;11.84;57.51
73566;BME280;61846;52.970;-3.168;2023-04-28T07:30:14;99971.19;;;11.87;57.16
73566;BME280;61846;52.970;-3.168;2023-04-28T07:32:39;99974.11;;;11.88;57.73
73566;BME280;61846;52.970;-3.168;2023-04-28T07:35:06;99982.41;;;11.88;57.17
73566;BME280;61846;52.970;-3.168;2023-04-28T07:37:31;99986.85;;;11.67;58.62
73566;BME280;61846;52.970;-3.168;2023-04-28T07:39:56;99989.47;;;11.73;57.63
73566;BME280;61846;52.970;-3.168;2023-04-28T07:42:21;99993.10;;;11.35;59.17
73566;BME280;61846;52.970;-3.168;2023-04-28T07:44:47;99995.28;;;11.98;57.12
73566;BME280;61846;52.970;-3.168;2023-04-28T07:47:12;100002.34;;;11.32;59.51
73566;BME280;61846;52.970;-3.168;2023-04-28T07:49:38;100006.38;;;11.21;60.90
73566;BME280;61846;52.970;-3.168;2023-04-28T07:52:03;100010.88;;;10.89;60.23
73566;BME280;61846;52.970;-3.168;2023-04-28T07:54:28;100013.96;;;11.44;59.79
73566;BME280;61846;52.970;-3.168;2023-04-28T07:56:55;100017.90;;;11.94;58.65
73566;BME280;61846;52.970;-3.168;2023-04-28T07:59:19;100022.80;;;11.43;58.55
73566;BME280;61846;52.970;-3.168;2023-04-28T08:01:44;100022.52;;;11.93;58.31
73566;BME280;61846;52.970;-3.168;2023-04-28T08:04:10;100025.30;;;12.42;56.01
73566;BME280;61846;52.970;-3.168;2023-04-28T08:06:35;100030.69;;;12.41;55.62
73566;BME280;61846;52.970;-3.168;2023-04-28T08:09:01;100032.17;;;12.56;55.41
73566;BME280;61846;52.970;-3.168;2023-04-28T08:11:27;100031.69;;;11.81;56.17
73566;BME280;61846;52.970;-3.168;2023-04-28T08:13:52;100037.24;;;12.13;56.13
73566;BME280;61846;52.970;-3.168;2023-04-28T08:16:18;100041.73;;;11.75;56.27
73566;BME280;61846;52.970;-3.168;2023-04-28T08:18:43;100047.17;;;12.47;55.02
73566;BME280;61846;52.970;-3.168;2023-04-28T08:21:09;100045.58;;;13.17;53.09
73566;BME280;61846;52.970;-3.168;2023-04-28T08:23:33;100049.33;;;13.48;52.33
73566;BME280;61846;52.970;-3.168;2023-04-28T08:25:59;100054.82;;;13.45;52.30
73566;BME280;61846;52.970;-3.168;2023-04-28T08:28:24;100053.41;;;13.89;51.08
73566;BME280;61846;52.970;-3.168;2023-04-28T08:30:50;100056.13;;;13.44;52.29
73566;BME280;61846;52.970;-3.168;2023-04-28T08:33:15;100055.34;;;13.34;52.61
73566;BME280;61846;52.970;-3.168;2023-04-28T08:35:41;100057.19;;;14.52;51.52
73566;BME280;61846;52.970;-3.168;2023-04-28T08:38:07;100057.50;;;14.14;50.08
73566;BME280;61846;52.970;-3.168;2023-04-28T08:40:32;100060.01;;;13.93;51.74
73566;BME280;61846;52.970;-3.168;2023-04-28T08:42:58;100064.55;;;13.61;52.23
73566;BME280;61846;52.970;-3.168;2023-04-28T08:45:23;100067.10;;;14.14;51.86
73566;BME280;61846;52.970;-3.168;2023-04-28T08:47:48;100067.98;;;13.89;51.76
73566;BME280;61846;52.970;-3.168;2023-04-28T08:50:14;100070.43;;;14.62;50.12
73566;BME280;61846;52.970;-3.168;2023-04-28T08:52:39;100067.63;;;15.53;49.78
73566;BME280;61846;52.970;-3.168;2023-04-28T08:55:06;100078.83;;;15.14;49.09
73566;BME280;61846;52.970;-3.168;2023-04-28T08:57:31;100087.89;;;13.73;51.70
73566;BME280;61846;52.970;-3.168;2023-04-28T08:59:55;100085.69;;;15.05;48.64
73566;BME280;61846;52.970;-3.168;2023-04-28T09:02:20;100097.84;;;14.20;49.80
73566;BME280;61846;52.970;-3.168;2023-04-28T09:04:46;100093.33;;;14.67;49.88
73566;BME280;61846;52.970;-3.168;2023-04-28T09:07:12;100097.71;;;14.77;50.92
73566;BME280;61846;52.970;-3.168;2023-04-28T09:09:36;100105.79;;;14.71;50.31
73566;BME280;61846;52.970;-3.168;2023-04-28T09:12:03;100101.44;;;14.91;50.29
73566;BME280;61846;52.970;-3.168;2023-04-28T09:14:28;100107.63;;;15.38;49.28
73566;BME280;61846;52.970;-3.168;2023-04-28T09:16:53;100109.39;;;15.61;48.51
73566;BME280;61846;52.970;-3.168;2023-04-28T09:19:18;100112.30;;;14.77;49.06
73566;BME280;61846;52.970;-3.168;2023-04-28T09:21:48;100113.26;;;15.65;49.35
73566;BME280;61846;52.970;-3.168;2023-04-28T09:24:09;100115.34;;;14.96;48.27
73566;BME280;61846;52.970;-3.168;2023-04-28T09:31:25;100123.36;;;16.02;45.55
73566;BME280;61846;52.970;-3.168;2023-04-28T09:33:56;100128.40;;;16.21;44.84
73566;BME280;61846;52.970;-3.168;2023-04-28T09:36:25;100133.73;;;15.91;44.88
73566;BME280;61846;52.970;-3.168;2023-04-28T09:38:43;100145.03;;;15.80;45.45
73566;BME280;61846;52.970;-3.168;2023-04-28T09:41:08;100143.76;;;15.27;45.52
73566;BME280;61846;52.970;-3.168;2023-04-28T09:43:33;100146.49;;;14.67;48.11
73566;BME280;61846;52.970;-3.168;2023-04-28T09:45:59;100147.84;;;15.63;45.56
73566;BME280;61846;52.970;-3.168;2023-04-28T09:48:28;100149.25;;;15.59;46.32
73566;BME280;61846;52.970;-3.168;2023-04-28T09:50:48;100150.71;;;16.07;46.76
73566;BME280;61846;52.970;-3.168;2023-04-28T09:53:14;100149.36;;;16.02;44.63
73566;BME280;61846;52.970;-3.168;2023-04-28T09:55:42;100153.07;;;15.59;44.79
73566;BME280;61846;52.970;-3.168;2023-04-28T09:58:06;100156.29;;;15.34;47.11
73566;BME280;61846;52.970;-3.168;2023-04-28T10:00:32;100156.82;;;15.54;46.19
73566;BME280;61846;52.970;-3.168;2023-04-28T10:02:55;100164.94;;;16.04;45.63
73566;BME280;61846;52.970;-3.168;2023-04-28T10:05:21;100165.03;;;16.60;46.10
73566;BME280;61846;52.970;-3.168;2023-04-28T10:07:46;100172.16;;;16.64;44.92
73566;BME280;61846;52.970;-3.168;2023-04-28T10:10:11;100175.88;;;16.74;46.05
73566;BME280;61846;52.970;-3.168;2023-04-28T10:12:37;100182.50;;;16.29;45.15
73566;BME280;61846;52.970;-3.168;2023-04-28T10:15:02;100189.44;;;15.76;46.12
73566;BME280;61846;52.970;-3.168;2023-04-28T10:17:28;100187.21;;;15.85;45.95
73566;BME280;61846;52.970;-3.168;2023-04-28T10:19:53;100183.20;;;16.55;44.90
73566;BME280;61846;52.970;-3.168;2023-04-28T10:22:28;100193.16;;;17.24;46.07
73566;BME280;61846;52.970;-3.168;2023-04-28T10:24:58;100193.40;;;17.62;44.59
73566;BME280;61846;52.970;-3.168;2023-04-28T10:27:10;100196.32;;;17.44;44.32
73566;BME280;61846;52.970;-3.168;2023-04-28T10:29:35;100205.72;;;17.03;41.93
73566;BME280;61846;52.970;-3.168;2023-04-28T10:32:14;100209.08;;;17.38;43.62
73566;BME280;61846;52.970;-3.168;2023-04-28T10:34:26;100213.70;;;16.32;44.55
73566;BME280;61846;52.970;-3.168;2023-04-28T10:36:52;100215.63;;;17.34;44.25
73566;BME280;61846;52.970;-3.168;2023-04-28T10:39:17;100218.36;;;17.79;43.34
73566;BME280;61846;52.970;-3.168;2023-04-28T10:41:44;100220.81;;;17.56;43.13
73566;BME280;61846;52.970;-3.168;2023-04-28T10:48:59;100244.99;;;17.54;44.37
73566;BME280;61846;52.970;-3.168;2023-04-28T10:51:30;100244.98;;;17.64;42.29
73566;BME280;61846;52.970;-3.168;2023-04-28T10:56:17;100243.09;;;17.53;41.58
73566;BME280;61846;52.970;-3.168;2023-04-28T10:58:41;100250.10;;;16.88;41.96
73566;BME280;61846;52.970;-3.168;2023-04-28T11:01:23;100256.50;;;16.78;44.02
73566;BME280;61846;52.970;-3.168;2023-04-28T11:03:47;100257.44;;;16.17;43.50
73566;BME280;61846;52.970;-3.168;2023-04-28T11:08:31;100253.94;;;17.85;42.05
73566;BME280;61846;52.970;-3.168;2023-04-28T11:13:24;100248.40;;;18.23;41.57
73566;BME280;61846;52.970;-3.168;2023-04-28T11:15:39;100251.31;;;18.43;40.77
73566;BME280;61846;52.970;-3.168;2023-04-28T11:18:09;100253.12;;;17.09;42.28
73566;BME280;61846;52.970;-3.168;2023-04-28T11:20:30;100260.06;;;18.20;40.79
73566;BME280;61846;52.970;-3.168;2023-04-28T11:22:55;100260.02;;;18.29;39.19
73566;BME280;61846;52.970;-3.168;2023-04-28T11:25:21;100264.69;;;19.12;39.77
73566;BME280;61846;52.970;-3.168;2023-04-28T11:27:46;100268.68;;;19.57;36.94
73566;BME280;61846;52.970;-3.168;2023-04-28T11:30:19;100270.62;;;18.87;39.42
73566;BME280;61846;52.970;-3.168;2023-04-28T11:32:38;100277.50;;;18.56;39.19
73566;BME280;61846;52.970;-3.168;2023-04-28T11:35:04;100278.58;;;18.77;38.29
73566;BME280;61846;52.970;-3.168;2023-04-28T11:37:29;100280.81;;;19.05;38.99
73566;BME280;61846;52.970;-3.168;2023-04-28T11:39:54;100283.04;;;19.85;37.90
73566;BME280;61846;52.970;-3.168;2023-04-28T11:42:20;100285.90;;;19.91;39.17
73566;BME280;61846;52.970;-3.168;2023-04-28T11:44:50;100285.33;;;20.55;39.56
73566;BME280;61846;52.970;-3.168;2023-04-28T11:47:11;100284.88;;;20.75;36.73
73566;BME280;61846;52.970;-3.168;2023-04-28T11:49:42;100285.86;;;19.34;37.36
73566;BME280;61846;52.970;-3.168;2023-04-28T11:52:04;100284.47;;;19.68;36.71
73566;BME280;61846;52.970;-3.168;2023-04-28T11:54:28;100286.72;;;19.64;38.33
73566;BME280;61846;52.970;-3.168;2023-04-28T11:56:55;100293.80;;;19.78;36.36
73566;BME280;61846;52.970;-3.168;2023-04-28T11:59:23;100300.53;;;19.75;36.67
73566;BME280;61846;52.970;-3.168;2023-04-28T12:01:47;100301.96;;;20.80;36.72
73566;BME280;61846;52.970;-3.168;2023-04-28T12:04:10;100306.93;;;19.80;36.19
73566;BME280;61846;52.970;-3.168;2023-04-28T12:06:36;100308.36;;;19.69;36.84
73566;BME280;61846;52.970;-3.168;2023-04-28T12:09:15;100307.61;;;20.02;38.26
73566;BME280;61846;52.970;-3.168;2023-04-28T12:11:26;100304.50;;;20.19;36.20
73566;BME280;61846;52.970;-3.168;2023-04-28T12:14:03;100309.73;;;20.42;35.39
73566;BME280;61846;52.970;-3.168;2023-04-28T12:23:34;100316.25;;;20.53;35.78
73566;BME280;61846;52.970;-3.168;2023-04-28T12:25:59;100317.95;;;20.43;35.08
73566;BME280;61846;52.970;-3.168;2023-04-28T12:28:35;100315.68;;;21.21;31.94
73566;BME280;61846;52.970;-3.168;2023-04-28T12:33:22;100326.23;;;19.52;34.95
73566;BME280;61846;52.970;-3.168;2023-04-28T12:35:41;100324.29;;;20.17;35.65
73566;BME280;61846;52.970;-3.168;2023-04-28T12:38:05;100331.66;;;20.48;32.70
73566;BME280;61846;52.970;-3.168;2023-04-28T12:40:31;100328.37;;;20.77;34.92
73566;BME280;61846;52.970;-3.168;2023-04-28T12:42:56;100328.02;;;20.72;35.53
73566;BME280;61846;52.970;-3.168;2023-04-28T12:45:22;100331.10;;;20.41;33.03
73566;BME280;61846;52.970;-3.168;2023-04-28T12:47:47;100332.48;;;21.09;34.23
73566;BME280;61846;52.970;-3.168;2023-04-28T12:50:13;100332.18;;;21.62;31.93
73566;BME280;61846;52.970;-3.168;2023-04-28T12:52:38;100332.36;;;21.96;32.58
73566;BME280;61846;52.970;-3.168;2023-04-28T12:55:04;100340.97;;;20.47;33.33
73566;BME280;61846;52.970;-3.168;2023-04-28T12:57:29;100345.23;;;20.10;33.69
73566;BME280;61846;52.970;-3.168;2023-04-28T12:59:54;100349.67;;;20.67;33.20
73566;BME280;61846;52.970;-3.168;2023-04-28T13:02:19;100355.73;;;20.10;33.76